Burlington, VT

7:12 PM EDT on October 22, 2014 (GMT -0400)
Lakeside Ave | Change Station
CLOSE
Current Station
Personal Weather Station
Location: BURLINGTON, VT
Elevation: 112 ft
Nearby Weather Stations

Elev 112 ft 44.46 °N, 73.22 °W | Updated 13 minutes ago

Overcast
Overcast
53.4 °F
Feels Like 53.4 °F
N
9.0
Wind Variable Wind from North
Gusts 9.0 mph

Today
High -- | Low -- °F
--% Chance of Precip.
Yesterday
High -- | Low -- °F
Precip. -- in
7:17 AM 5:57 PM
Waning Crescent, 1% visible
Pressure 30.14 in
Visibility 10.0 miles
Clouds Scattered Clouds 5000 ft
Mostly Cloudy 8000 ft
Dew Point 46 °F
Humidity 75%
Rainfall 0.00 in
Snow Depth Not available.
UV 0 out of 12
Pollen .10 out of 12
Ozone Good
PM2.5 Good
Flu Activity Sporadic
METAR KBTV 222254Z 35008KT 10SM SCT050 BKN080 11/05 A3013 RMK AO2 SLP205 T01110050

More Conditions Fewer Conditions

Pressure 30.14 in
Visibility 10.0 miles
Clouds Scattered Clouds 5000 ft
Mostly Cloudy 8000 ft
Dew Point 46 °F
Humidity 75%
Rainfall 0.00 in
Snow Depth Not available.
UV 0 out of 12
Pollen .10 out of 12
Ozone Good
PM2.5 Good
Flu Activity Sporadic
METAR KBTV 222254Z 35008KT 10SM SCT050 BKN080 11/05 A3013 RMK AO2 SLP205 T01110050

More Conditions Fewer Conditions

10-Day Weather Forecast

Almanac

Astronomy

Oct. 22, 2014 Rise Set
Actual Time 7:17 AM EDT 5:57 PM EDT
Civil Twilight 6:47 AM EDT 6:26 PM EDT
Nautical Twilight 6:13 AM EDT 7:00 PM EDT
Astronomical Twilight 5:39 AM EDT 7:34 PM EDT
Moon 5:52 AM EDT 5:24 PM EDT
Length of Visible Light 11h 39m
Length of Day
10h 40m
Tomorrow will be 2m 53s shorter.
Waning Crescent, 1% of the Moon is Illuminated
Today
Waning Crescent
Oct 23
New
Oct 30
First Quarter
Nov 6
Full
Nov 14
Last Quarter

Today's Extremes

State Highs State Lows

Community

WunderPhotos

Upload Photos

1,764,075 photos uploaded!

WunderBlogs® & News

Nearby

Air Quality

  Air Quality AQ Index Pollutant
Yesterday Good
PM2.5
Yesterday Good
OZONE
Current Good
PM2.5
Current Good
OZONE
Wednesday Good
PM2.5
Thursday Good
PM2.5

Snow Depth

Station Depth Elevation
No new snow has been reported.

Earthquake Activity

City Distance Mag. Time & Date
No recent earthquake activity has been reported nearby.
Minimum magnitude displayed is 2.5.

Coastal Water Temperatures

Place Temperature
No Stations Reporting

Nearby Weather Stations